Butte, MT

7:27 PM MDT on April 01, 2015 (GMT -0600)
Mooney | | Change Station
CLOSE
Current Station
Airport
Location: Butte,
Elevation: 5545 ft
Nearby Weather Stations

Elev 5545 ft 45.95 °N, 112.50 °W | Updated 34 minutes ago

Overcast
Overcast
33 °F
Feels Like 26 °F
N
9
Wind Variable Wind from West

Today
High -- | Low -- °F
--% Chance of Precip.
Yesterday
High -- | Low -- °F
Precip. -- in
7:10 AM 7:58 PM
Waxing Gibbous, 95% visible
Pressure 30.04 in
Visibility 10.0 miles
Clouds Few 5500 ft
Few 11000 ft
Windchill 26 °F
Dew Point 13 °F
Humidity 43%
Rainfall 0.00 in
Snow Depth Not available.
UV 1 out of 12
Pollen 4.80 out of 12
Air Quality Not available.
Flu Activity Not available.
METAR KBTM 020053Z AUTO 28008KT 10SM FEW055 FEW110 01/M11 A2996 RMK AO2 SNE2356 SLP170 P0000 T00061106

More Conditions Fewer Conditions

Pressure 30.04 in
Visibility 10.0 miles
Clouds Few 5500 ft
Few 11000 ft
Windchill 26 °F
Dew Point 13 °F
Humidity 43%
Rainfall 0.00 in
Snow Depth Not available.
UV 1 out of 12
Pollen 4.80 out of 12
Air Quality Not available.
Flu Activity Not available.
METAR KBTM 020053Z AUTO 28008KT 10SM FEW055 FEW110 01/M11 A2996 RMK AO2 SNE2356 SLP170 P0000 T00061106

More Conditions Fewer Conditions

10-Day Weather Forecast

Almanac

Astronomy

Apr. 01, 2015 Rise Set
Actual Time
Civil Twilight
Nautical Twilight
Astronomical Twilight
Moon
Length of Visible Light
Length of Day
Tomorrow will be .
, % of the Moon is Illuminated

Today's Extremes

State Highs State Lows

Community

WunderPhotos

Upload Photos

1,810,142 photos uploaded!

WunderBlogs® & News

Nearby

Air Quality

  Air Quality AQ Index Pollutant
Not available.

Snow Depth

Station Depth Elevation

Earthquake Activity

City Distance Mag. Time & Date
Minimum magnitude displayed is 2.5.

Coastal Water Temperatures

Place Temperature

Stations

Nearby Weather Stations

Station Location Temp. Windchill Dew Point Humidity Wind Precip. Elev Updated Type